createdAt,value
2023-02-08T00:00:37.049Z,32.73
2023-02-08T00:03:43.514Z,29.05
2023-02-08T00:06:49.576Z,30.37
2023-02-08T00:09:56.326Z,30.85
2023-02-08T00:13:02.631Z,25.52
2023-02-08T00:16:09.601Z,29.98
2023-02-08T00:19:15.565Z,30.43
2023-02-08T00:22:21.810Z,34.70
2023-02-08T00:25:26.930Z,29.82
2023-02-08T00:28:34.697Z,26.40
2023-02-08T00:31:40.372Z,27.42
2023-02-08T00:34:47.186Z,25.15
2023-02-08T00:37:53.040Z,29.42
2023-02-08T00:40:59.568Z,32.78
2023-02-08T00:44:04.360Z,27.40
2023-02-08T00:47:10.270Z,25.72
2023-02-08T00:50:16.455Z,27.67
2023-02-08T00:53:22.505Z,27.65
2023-02-08T00:56:29.088Z,32.65
2023-02-08T00:59:34.798Z,28.62
2023-02-08T01:02:33.567Z,28.15
2023-02-08T01:05:39.718Z,25.90
2023-02-08T01:08:44.613Z,32.28
2023-02-08T01:11:52.618Z,25.52
2023-02-08T01:14:58.966Z,26.52
2023-02-08T01:18:09.671Z,26.48
2023-02-08T01:21:28.092Z,26.73
2023-02-08T01:24:33.528Z,29.05
2023-02-08T01:27:39.939Z,30.12
2023-02-08T01:30:45.596Z,28.90
2023-02-08T01:33:51.444Z,32.65
2023-02-08T01:36:59.067Z,30.72
2023-02-08T01:40:05.602Z,29.50
2023-02-08T01:43:11.326Z,31.80
2023-02-08T01:46:17.187Z,28.40
2023-02-08T01:49:39.684Z,26.87
2023-02-08T01:52:47.136Z,28.27
2023-02-08T01:55:57.024Z,30.80
2023-02-08T01:59:05.055Z,28.83
2023-02-08T02:02:11.482Z,26.80
2023-02-08T02:05:18.316Z,29.37
2023-02-08T02:08:25.751Z,27.58
2023-02-08T02:11:30.433Z,26.45
2023-02-08T02:14:35.740Z,32.55
2023-02-08T02:17:41.183Z,28.02
2023-02-08T02:21:37.173Z,30.60
2023-02-08T02:25:22.529Z,28.27
2023-02-08T02:29:02.984Z,30.23
2023-02-08T02:32:42.875Z,35.25
2023-02-08T02:36:22.425Z,29.63
2023-02-08T02:43:21.775Z,26.07
2023-02-08T02:46:37.928Z,32.30
2023-02-08T02:50:03.210Z,26.55
2023-02-08T02:53:17.646Z,30.70
2023-02-08T02:56:38.108Z,27.58
2023-02-08T02:59:43.689Z,32.00
2023-02-08T03:02:51.905Z,39.25
2023-02-08T03:05:57.200Z,37.05
2023-02-08T03:09:26.948Z,37.58
2023-02-08T03:13:08.358Z,31.05
2023-02-08T03:16:18.441Z,40.55
2023-02-08T03:19:30.408Z,32.55
2023-02-08T03:22:49.258Z,37.88
2023-02-08T03:26:09.746Z,33.83
2023-02-08T03:29:39.902Z,30.15
2023-02-08T03:33:21.296Z,41.88
2023-02-08T03:36:40.634Z,34.13
2023-02-08T03:39:45.921Z,42.67
2023-02-08T03:42:52.643Z,31.52
2023-02-08T03:46:11.840Z,33.33
2023-02-08T03:49:20.966Z,35.40
2023-02-08T03:52:26.523Z,31.02
2023-02-08T03:55:39.361Z,36.10
2023-02-08T03:59:09.992Z,35.60
2023-02-08T04:02:18.877Z,32.08
2023-02-08T04:05:24.458Z,32.95
2023-02-08T04:08:29.861Z,35.95
2023-02-08T04:11:35.997Z,35.35
2023-02-08T04:14:41.990Z,30.95
2023-02-08T04:17:48.262Z,39.42
2023-02-08T04:20:53.895Z,35.30
2023-02-08T04:23:59.201Z,43.28
2023-02-08T04:27:06.123Z,38.20
2023-02-08T04:30:11.231Z,37.90
2023-02-08T04:33:18.880Z,43.48
2023-02-08T04:36:24.830Z,39.15
2023-02-08T04:39:31.120Z,34.70
2023-02-08T04:42:37.348Z,40.33
2023-02-08T04:45:43.408Z,37.05
2023-02-08T04:48:48.893Z,36.83
2023-02-08T04:51:53.855Z,33.48
2023-02-08T04:54:59.809Z,44.75
2023-02-08T04:58:05.719Z,32.95
2023-02-08T05:01:10.735Z,38.73
2023-02-08T05:04:16.685Z,31.00
2023-02-08T05:07:22.699Z,33.80
2023-02-08T05:10:27.680Z,35.68
2023-02-08T05:13:34.264Z,38.08
2023-02-08T05:16:39.005Z,33.45
2023-02-08T05:19:44.067Z,37.38
2023-02-08T05:22:50.734Z,38.25
2023-02-08T05:25:57.188Z,42.88
2023-02-08T05:29:03.817Z,34.58
2023-02-08T05:32:10.555Z,30.72
2023-02-08T05:35:16.347Z,33.63
2023-02-08T05:38:22.120Z,30.90
2023-02-08T05:41:28.378Z,35.05
2023-02-08T05:44:33.273Z,25.25
2023-02-08T05:47:38.479Z,34.23
2023-02-08T05:50:44.202Z,39.67
2023-02-08T05:53:50.353Z,32.75
2023-02-08T05:56:56.509Z,28.75
2023-02-08T06:00:01.378Z,39.90
2023-02-08T06:03:10.296Z,39.73
2023-02-08T06:06:18.820Z,36.70
2023-02-08T06:09:23.977Z,35.13
2023-02-08T06:12:29.753Z,36.35
2023-02-08T06:15:35.182Z,36.98
2023-02-08T06:18:39.694Z,28.27
2023-02-08T06:21:44.474Z,27.98
2023-02-08T06:24:50.007Z,31.33
2023-02-08T06:27:57.519Z,37.85
2023-02-08T06:31:06.547Z,30.02
2023-02-08T06:34:12.187Z,39.05
2023-02-08T06:37:18.112Z,28.85
2023-02-08T06:40:23.918Z,29.72
2023-02-08T06:43:29.793Z,96.55
2023-02-08T06:46:35.457Z,61.45
2023-02-08T06:49:42.091Z,52.20
2023-02-08T06:52:48.015Z,84.20
2023-02-08T06:55:54.708Z,73.00
2023-02-08T06:59:01.065Z,56.55
2023-02-08T07:02:06.252Z,88.85
2023-02-08T07:05:11.844Z,66.92
2023-02-08T07:08:18.588Z,66.17
2023-02-08T07:11:28.981Z,53.52
2023-02-08T07:14:34.729Z,79.95
2023-02-08T07:17:41.066Z,35.40
2023-02-08T07:20:46.639Z,73.55
2023-02-08T07:23:54.016Z,40.75
2023-02-08T07:26:59.898Z,34.65
2023-02-08T07:30:06.116Z,51.83
2023-02-08T07:33:13.009Z,29.20
2023-02-08T07:36:20.595Z,38.45
2023-02-08T07:39:25.678Z,31.05
2023-02-08T07:42:31.595Z,25.15
2023-02-08T07:45:40.807Z,37.03
2023-02-08T07:48:40.521Z,27.35
2023-02-08T07:51:26.796Z,31.05
2023-02-08T07:54:19.687Z,29.10
2023-02-08T07:57:12.173Z,26.52
2023-02-08T08:00:18.967Z,23.40
2023-02-08T08:03:24.671Z,31.02
2023-02-08T08:06:30.565Z,43.73
2023-02-08T08:09:36.897Z,31.52
2023-02-08T08:12:46.352Z,29.55
2023-02-08T08:15:54.935Z,25.60
2023-02-08T08:19:00.374Z,25.97
2023-02-08T08:22:06.148Z,24.77
2023-02-08T08:25:11.739Z,31.50
2023-02-08T08:28:18.501Z,26.02
2023-02-08T08:31:33.562Z,33.63
2023-02-08T08:34:38.813Z,46.53
2023-02-08T08:37:39.185Z,32.08
2023-02-08T08:40:45.660Z,26.07
2023-02-08T08:43:51.882Z,33.92
2023-02-08T08:46:57.089Z,26.73
2023-02-08T08:50:02.579Z,28.87
2023-02-08T08:53:08.128Z,31.52
2023-02-08T08:56:16.874Z,31.95
2023-02-08T08:59:25.189Z,32.73
2023-02-08T09:02:30.866Z,26.62
2023-02-08T09:05:41.344Z,24.98
2023-02-08T09:08:45.795Z,36.38
2023-02-08T09:11:52.743Z,19.52
2023-02-08T09:14:59.458Z,38.08
2023-02-08T09:18:06.188Z,30.57
2023-02-08T09:21:13.682Z,30.23
2023-02-08T09:24:19.487Z,27.77
2023-02-08T09:27:25.572Z,25.65
2023-02-08T09:30:30.783Z,31.60
2023-02-08T09:33:37.392Z,24.72
2023-02-08T09:36:49.085Z,28.42
2023-02-08T09:39:55.271Z,35.92
2023-02-08T09:43:05.083Z,23.18
2023-02-08T09:46:36.753Z,24.18
2023-02-08T09:49:48.811Z,22.87
2023-02-08T09:53:09.276Z,27.27
2023-02-08T09:56:17.114Z,23.83
2023-02-08T09:59:38.448Z,23.80
2023-02-08T10:02:46.198Z,28.42
2023-02-08T10:05:51.721Z,21.00
2023-02-08T10:08:58.044Z,25.62
2023-02-08T10:12:30.863Z,23.92
2023-02-08T10:15:49.122Z,20.62
2023-02-08T10:18:53.414Z,25.60
2023-02-08T10:21:52.757Z,24.65
2023-02-08T10:25:30.574Z,23.73
2023-02-08T10:28:34.300Z,21.20
2023-02-08T10:31:51.556Z,17.55
2023-02-08T10:35:11.270Z,22.25
2023-02-08T10:38:16.236Z,24.32
2023-02-08T10:41:23.076Z,27.70
2023-02-08T10:44:51.388Z,33.48
2023-02-08T10:48:09.489Z,29.52
2023-02-08T10:51:15.126Z,22.17
2023-02-08T10:54:20.548Z,24.52
2023-02-08T10:57:30.345Z,19.85
2023-02-08T11:00:39.316Z,37.73
2023-02-08T11:03:46.604Z,23.93
2023-02-08T11:06:56.774Z,27.67
2023-02-08T11:10:03.471Z,22.42
2023-02-08T11:13:36.442Z,31.37
2023-02-08T11:16:42.587Z,21.00
2023-02-08T11:19:54.109Z,22.45
2023-02-08T11:23:00.064Z,19.55
2023-02-08T11:26:06.076Z,21.23
2023-02-08T11:29:33.755Z,21.15
2023-02-08T11:32:42.177Z,28.67
2023-02-08T11:35:48.252Z,21.82
2023-02-08T11:38:49.983Z,21.80
2023-02-08T11:41:58.651Z,26.02
2023-02-08T11:45:03.818Z,18.85
2023-02-08T11:48:10.879Z,20.62
2023-02-08T11:51:18.041Z,18.32
2023-02-08T11:54:27.317Z,18.62
2023-02-08T12:00:43.215Z,19.75
2023-02-08T12:03:57.544Z,19.17
2023-02-08T12:07:13.735Z,17.35
2023-02-08T12:10:35.716Z,19.42
2023-02-08T12:14:13.978Z,27.70
2023-02-08T12:17:50.515Z,19.17
2023-02-08T12:21:03.157Z,25.02
2023-02-08T12:24:22.646Z,20.90
2023-02-08T12:27:42.242Z,19.15
2023-02-08T12:31:01.696Z,15.70
2023-02-08T12:34:26.300Z,16.37
2023-02-08T12:38:06.023Z,16.20
2023-02-08T12:41:32.367Z,18.35
2023-02-08T12:45:22.831Z,15.95
2023-02-08T12:48:57.749Z,18.35
2023-02-08T12:52:30.635Z,18.52
2023-02-08T12:55:47.908Z,21.73
2023-02-08T12:59:13.825Z,22.30
2023-02-08T13:02:29.764Z,20.30
2023-02-08T13:05:36.148Z,19.30
2023-02-08T13:08:57.037Z,19.35
2023-02-08T13:12:08.649Z,24.92
2023-02-08T13:15:35.892Z,18.25
2023-02-08T13:18:52.014Z,21.90
2023-02-08T13:21:57.617Z,26.65
2023-02-08T13:25:08.012Z,24.90
2023-02-08T13:28:21.934Z,21.77
2023-02-08T13:31:31.141Z,23.12
2023-02-08T13:38:06.458Z,25.70
2023-02-08T13:41:24.351Z,20.25
2023-02-08T13:44:37.298Z,27.00
2023-02-08T13:47:48.575Z,20.95
2023-02-08T13:51:04.429Z,23.35
2023-02-08T13:54:20.156Z,19.77
2023-02-08T13:58:07.782Z,28.87
2023-02-08T14:01:16.380Z,20.82
2023-02-08T14:04:30.002Z,17.90
2023-02-08T14:07:43.158Z,21.70
2023-02-08T14:10:55.424Z,20.43
2023-02-08T14:14:10.685Z,20.27
2023-02-08T14:17:38.893Z,28.50
2023-02-08T14:20:51.192Z,26.02
2023-02-08T14:23:57.712Z,22.73
2023-02-08T14:27:02.335Z,31.87
2023-02-08T14:30:32.367Z,25.15
2023-02-08T14:33:54.733Z,23.73
2023-02-08T14:37:00.592Z,22.10
2023-02-08T14:40:05.959Z,24.50
2023-02-08T14:43:21.368Z,20.17
2023-02-08T14:46:53.059Z,20.15
2023-02-08T14:49:59.376Z,21.48
2023-02-08T14:53:35.894Z,20.75
2023-02-08T14:56:50.745Z,25.77
2023-02-08T14:59:50.291Z,20.43
2023-02-08T15:02:43.946Z,18.17
2023-02-08T15:09:00.105Z,25.68
2023-02-08T15:12:18.668Z,26.70
2023-02-08T15:15:44.898Z,20.25
2023-02-08T15:18:51.518Z,20.12
2023-02-08T15:21:58.000Z,18.35
2023-02-08T15:25:12.439Z,20.37
2023-02-08T15:28:33.085Z,22.87
2023-02-08T15:31:47.160Z,26.75
2023-02-08T15:34:54.924Z,21.97
2023-02-08T15:38:01.830Z,25.23
2023-02-08T15:41:26.416Z,21.17
2023-02-08T15:44:44.225Z,18.15
2023-02-08T15:47:51.601Z,22.10
2023-02-08T15:50:57.586Z,23.83
2023-02-08T15:54:08.864Z,22.20
2023-02-08T15:57:20.797Z,22.65
2023-02-08T16:00:39.841Z,20.12
2023-02-08T16:03:45.994Z,29.87
2023-02-08T16:06:55.278Z,21.55
2023-02-08T16:10:02.286Z,19.42
2023-02-08T16:13:13.644Z,20.02
2023-02-08T16:16:40.730Z,22.32
2023-02-08T16:19:47.960Z,20.90
2023-02-08T16:22:53.742Z,23.62
2023-02-08T16:26:00.124Z,28.12
2023-02-08T16:29:13.490Z,22.32
2023-02-08T16:32:21.543Z,23.45
2023-02-08T16:35:29.504Z,21.85
2023-02-08T16:38:37.317Z,22.45
2023-02-08T16:41:43.790Z,35.70
2023-02-08T16:44:51.078Z,30.00
2023-02-08T16:48:17.514Z,28.75
2023-02-08T16:51:12.730Z,100.87
2023-02-08T16:54:20.315Z,120.90
2023-02-08T16:57:26.683Z,162.00
2023-02-08T17:00:44.727Z,158.40
2023-02-08T17:03:50.943Z,116.05
2023-02-08T17:06:58.793Z,171.35
2023-02-08T17:10:04.222Z,184.25
2023-02-08T17:13:24.276Z,144.07
2023-02-08T17:16:16.016Z,123.95
2023-02-08T17:19:21.704Z,93.80
2023-02-08T17:22:27.900Z,109.05
2023-02-08T17:25:32.972Z,67.65
2023-02-08T17:28:41.122Z,41.08
2023-02-08T17:31:48.198Z,50.73
2023-02-08T17:34:54.233Z,41.92
2023-02-08T17:38:02.282Z,32.00
2023-02-08T17:41:01.491Z,39.83
2023-02-08T17:44:08.420Z,61.88
2023-02-08T17:47:14.088Z,41.50
2023-02-08T17:50:20.725Z,58.90
2023-02-08T17:53:26.874Z,51.58
2023-02-08T17:56:41.288Z,74.53
2023-02-08T17:59:46.156Z,41.48
2023-02-08T18:02:53.157Z,41.98
2023-02-08T18:05:58.853Z,53.48
2023-02-08T18:09:11.064Z,34.63
2023-02-08T18:12:17.478Z,29.00
2023-02-08T18:15:27.147Z,34.05
2023-02-08T18:18:32.369Z,35.25
2023-02-08T18:21:39.883Z,30.00
2023-02-08T18:24:46.345Z,20.30
2023-02-08T18:27:52.332Z,16.52
2023-02-08T18:30:58.608Z,20.27
2023-02-08T18:34:04.732Z,21.52
2023-02-08T18:37:10.177Z,22.22
2023-02-08T18:40:16.276Z,19.20
2023-02-08T18:43:22.369Z,25.68
2023-02-08T18:46:30.197Z,25.37
2023-02-08T18:49:36.698Z,18.48
2023-02-08T18:52:42.220Z,18.25
2023-02-08T18:55:34.476Z,19.60
2023-02-08T18:58:40.884Z,20.35
2023-02-08T19:01:46.925Z,17.60
2023-02-08T19:04:54.093Z,20.17
2023-02-08T19:08:00.251Z,21.62
2023-02-08T19:11:06.989Z,18.23
2023-02-08T19:14:14.022Z,21.75
2023-02-08T19:17:18.972Z,26.70
2023-02-08T19:20:26.127Z,22.13
2023-02-08T19:23:32.216Z,19.70
2023-02-08T19:26:40.456Z,22.32
2023-02-08T19:29:45.478Z,21.17
2023-02-08T19:32:51.616Z,24.90
2023-02-08T19:35:58.438Z,25.55
2023-02-08T19:39:04.909Z,21.77
2023-02-08T19:42:10.475Z,26.80
2023-02-08T19:45:15.586Z,25.77
2023-02-08T19:48:16.179Z,22.02
2023-02-08T19:51:22.164Z,25.72
2023-02-08T19:54:29.584Z,24.60
2023-02-08T19:57:35.274Z,22.48
2023-02-08T20:00:34.816Z,22.22
2023-02-08T20:03:41.021Z,22.37
2023-02-08T20:06:52.367Z,31.42
2023-02-08T20:09:58.034Z,25.27
2023-02-08T20:13:03.493Z,20.75
2023-02-08T20:16:12.090Z,21.20
2023-02-08T20:19:19.711Z,27.65
2023-02-08T20:22:26.021Z,25.72
2023-02-08T20:25:31.489Z,26.85
2023-02-08T20:28:37.142Z,26.97
2023-02-08T20:31:45.428Z,28.15
2023-02-08T20:34:59.372Z,22.27
2023-02-08T20:38:00.040Z,32.85
2023-02-08T20:41:06.457Z,24.82
2023-02-08T20:44:11.740Z,20.92
2023-02-08T20:47:18.423Z,30.37
2023-02-08T20:50:24.857Z,23.32
2023-02-08T20:53:30.949Z,27.15
2023-02-08T20:56:42.762Z,27.90
2023-02-08T20:59:47.766Z,30.72
2023-02-08T21:02:53.639Z,31.52
2023-02-08T21:06:00.058Z,29.55
2023-02-08T21:09:06.178Z,28.00
2023-02-08T21:12:12.920Z,29.10
2023-02-08T21:15:18.385Z,29.02
2023-02-08T21:18:24.200Z,28.75
2023-02-08T21:21:31.162Z,28.57
2023-02-08T21:24:37.845Z,27.67
2023-02-08T21:27:43.674Z,31.80
2023-02-08T21:30:49.698Z,27.45
2023-02-08T21:33:56.892Z,31.15
2023-02-08T21:37:03.229Z,29.18
2023-02-08T21:40:02.063Z,37.80
2023-02-08T21:43:08.157Z,29.02
2023-02-08T21:46:18.674Z,30.57
2023-02-08T21:49:41.811Z,32.93
2023-02-08T21:53:04.936Z,32.60
2023-02-08T21:56:10.370Z,33.02
2023-02-08T21:59:16.226Z,30.43
2023-02-08T22:02:34.929Z,31.75
2023-02-08T22:05:57.557Z,30.05
2023-02-08T22:09:03.814Z,29.32
2023-02-08T22:12:08.732Z,34.58
2023-02-08T22:15:14.331Z,31.65
2023-02-08T22:18:20.184Z,30.85
2023-02-08T22:21:24.694Z,35.13
2023-02-08T22:24:29.864Z,28.32
2023-02-08T22:27:36.178Z,31.68
2023-02-08T22:30:43.786Z,32.78
2023-02-08T22:33:49.466Z,39.25
2023-02-08T22:36:55.450Z,30.55
2023-02-08T22:40:00.223Z,31.57
2023-02-08T22:43:06.362Z,36.80
2023-02-08T22:46:15.312Z,30.00
2023-02-08T22:49:20.402Z,32.42
2023-02-08T22:52:26.062Z,37.98
2023-02-08T22:55:33.662Z,30.80
2023-02-08T22:58:39.590Z,35.40
2023-02-08T23:01:44.733Z,32.38
2023-02-08T23:04:51.335Z,34.60
2023-02-08T23:07:57.805Z,30.32
2023-02-08T23:11:03.161Z,37.23
2023-02-08T23:14:09.462Z,39.35
2023-02-08T23:17:15.670Z,35.20
2023-02-08T23:20:20.742Z,37.48
2023-02-08T23:23:26.372Z,33.55
2023-02-08T23:26:34.503Z,33.10
2023-02-08T23:29:40.657Z,35.43
2023-02-08T23:32:46.563Z,40.50
2023-02-08T23:35:56.298Z,34.85
2023-02-08T23:39:02.442Z,37.60
2023-02-08T23:42:10.669Z,32.73
2023-02-08T23:45:17.014Z,38.58
2023-02-08T23:48:22.549Z,41.68
2023-02-08T23:51:22.447Z,40.25
2023-02-08T23:54:15.571Z,38.33
2023-02-08T23:57:14.864Z,40.52
